createdAt,value
2023-09-17T00:00:21.124Z,10.91
2023-09-17T00:02:47.967Z,10.27
2023-09-17T00:05:14.758Z,10.09
2023-09-17T00:07:42.924Z,10.32
2023-09-17T00:10:10.274Z,10.05
2023-09-17T00:12:37.048Z,10.70
2023-09-17T00:15:04.070Z,10.71
2023-09-17T00:17:31.177Z,10.83
2023-09-17T00:19:57.973Z,10.72
2023-09-17T00:22:25.483Z,9.85
2023-09-17T00:24:52.176Z,9.98
2023-09-17T00:27:18.982Z,10.57
2023-09-17T00:29:45.601Z,10.93
2023-09-17T00:32:12.438Z,11.00
2023-09-17T00:34:39.220Z,10.79
2023-09-17T00:37:05.922Z,11.03
2023-09-17T00:39:32.640Z,10.39
2023-09-17T00:41:59.795Z,10.17
2023-09-17T00:44:26.614Z,10.12
2023-09-17T00:46:53.554Z,10.58
2023-09-17T00:49:20.756Z,10.43
2023-09-17T00:51:47.803Z,10.01
2023-09-17T00:54:14.856Z,9.63
2023-09-17T00:56:41.900Z,10.16
2023-09-17T00:59:08.716Z,10.33
2023-09-17T01:01:36.403Z,10.47
2023-09-17T01:04:05.244Z,10.24
2023-09-17T01:06:32.249Z,9.92
2023-09-17T01:08:59.448Z,10.01
2023-09-17T01:11:26.606Z,9.74
2023-09-17T01:13:59.978Z,10.03
2023-09-17T01:16:27.928Z,9.85
2023-09-17T01:18:55.343Z,9.52
2023-09-17T01:21:31.033Z,9.49
2023-09-17T01:24:24.697Z,9.91
2023-09-17T01:27:19.693Z,10.33
2023-09-17T01:29:47.842Z,10.54
2023-09-17T01:32:16.171Z,10.40
2023-09-17T01:34:44.816Z,10.80
2023-09-17T01:37:33.924Z,10.80
2023-09-17T01:40:06.507Z,10.93
2023-09-17T01:42:34.947Z,11.04
2023-09-17T01:45:03.509Z,11.06
2023-09-17T01:47:31.665Z,9.62
2023-09-17T01:49:59.676Z,10.02
2023-09-17T01:52:28.019Z,10.09
2023-09-17T01:54:54.845Z,10.42
2023-09-17T01:57:21.530Z,9.75
2023-09-17T01:59:48.243Z,9.41
2023-09-17T02:02:15.009Z,8.95
2023-09-17T02:04:41.778Z,9.17
2023-09-17T02:07:08.617Z,9.50
2023-09-17T02:09:35.251Z,7.76
2023-09-17T02:12:01.939Z,9.45
2023-09-17T02:14:29.210Z,9.77
2023-09-17T02:16:56.544Z,9.92
2023-09-17T02:19:23.803Z,10.19
2023-09-17T02:21:51.422Z,10.51
2023-09-17T02:24:18.024Z,10.52
2023-09-17T02:26:45.545Z,10.58
2023-09-17T02:29:12.390Z,10.02
2023-09-17T02:31:39.238Z,9.72
2023-09-17T02:34:06.032Z,9.99
2023-09-17T02:36:33.139Z,10.30
2023-09-17T02:39:00.340Z,9.31
2023-09-17T02:41:27.165Z,9.77
2023-09-17T02:43:54.027Z,9.49
2023-09-17T02:46:22.141Z,8.83
2023-09-17T02:48:49.037Z,9.51
2023-09-17T02:51:16.415Z,9.32
2023-09-17T02:53:43.451Z,9.48
2023-09-17T02:56:10.138Z,9.71
2023-09-17T02:58:36.886Z,9.89
2023-09-17T03:01:16.865Z,10.16
2023-09-17T03:03:43.598Z,9.37
2023-09-17T03:06:11.715Z,10.23
2023-09-17T03:08:42.779Z,10.24
2023-09-17T03:11:14.958Z,10.51
2023-09-17T03:13:48.844Z,10.72
2023-09-17T03:16:20.030Z,10.40
2023-09-17T03:18:46.924Z,10.14
2023-09-17T03:21:13.794Z,10.63
2023-09-17T03:23:40.473Z,10.24
2023-09-17T03:26:10.244Z,10.67
2023-09-17T03:28:36.990Z,10.49
2023-09-17T03:31:05.325Z,10.54
2023-09-17T03:33:32.566Z,10.54
2023-09-17T03:36:00.331Z,10.57
2023-09-17T03:38:27.168Z,10.30
2023-09-17T03:40:54.180Z,9.59
2023-09-17T03:43:21.233Z,10.19
2023-09-17T03:45:48.566Z,10.33
2023-09-17T03:48:15.250Z,10.42
2023-09-17T03:50:43.887Z,10.22
2023-09-17T03:53:11.453Z,10.61
2023-09-17T03:55:39.163Z,10.56
2023-09-17T04:28:56.460Z,8.05
2023-09-17T04:31:23.509Z,8.22
2023-09-17T04:33:50.680Z,7.64
2023-09-17T04:36:17.498Z,8.53
2023-09-17T04:38:44.158Z,8.53
2023-09-17T04:41:10.866Z,8.16
2023-09-17T04:43:38.066Z,8.07
2023-09-17T04:46:05.311Z,8.18
2023-09-17T04:48:34.272Z,7.79
2023-09-17T04:51:00.941Z,8.17
2023-09-17T04:53:27.650Z,9.12
2023-09-17T04:55:55.431Z,9.16
2023-09-17T04:58:26.545Z,9.22
2023-09-17T05:00:56.545Z,9.46
2023-09-17T05:03:24.552Z,9.24
2023-09-17T05:05:52.161Z,8.13
2023-09-17T05:08:19.625Z,8.99
2023-09-17T05:10:47.002Z,8.60
2023-09-17T05:13:13.791Z,8.85
2023-09-17T05:15:40.468Z,8.68
2023-09-17T05:18:10.767Z,8.65
2023-09-17T05:20:44.942Z,8.65
2023-09-17T05:23:14.871Z,8.77
2023-09-17T05:25:41.920Z,9.04
2023-09-17T05:28:10.596Z,9.01
2023-09-17T05:30:38.535Z,9.40
2023-09-17T05:33:05.848Z,9.68
2023-09-17T05:35:33.522Z,9.72
2023-09-17T05:38:00.300Z,10.18
2023-09-17T05:40:27.363Z,10.26
2023-09-17T05:42:54.293Z,10.09
2023-09-17T05:45:20.989Z,9.87
2023-09-17T05:47:47.797Z,10.47
2023-09-17T05:50:14.560Z,10.56
2023-09-17T05:52:41.469Z,10.66
2023-09-17T05:55:09.176Z,10.80
2023-09-17T05:57:36.032Z,10.83
2023-09-17T06:00:05.709Z,10.69
2023-09-17T06:02:41.178Z,10.49
2023-09-17T06:05:08.700Z,10.80
2023-09-17T06:07:35.659Z,10.80
2023-09-17T06:10:02.485Z,10.90
2023-09-17T06:12:30.361Z,10.96
2023-09-17T06:14:57.273Z,10.89
2023-09-17T06:17:24.185Z,10.54
2023-09-17T06:19:52.037Z,10.11
2023-09-17T06:22:18.752Z,9.77
2023-09-17T06:24:45.893Z,9.96
2023-09-17T06:27:12.516Z,10.03
2023-09-17T06:29:39.313Z,9.89
2023-09-17T06:32:06.356Z,9.61
2023-09-17T06:34:34.091Z,9.86
2023-09-17T06:37:01.020Z,10.18
2023-09-17T06:39:27.858Z,10.19
2023-09-17T06:41:54.665Z,10.09
2023-09-17T06:44:21.446Z,10.37
2023-09-17T06:46:48.271Z,10.51
2023-09-17T06:49:15.066Z,10.73
2023-09-17T06:51:41.834Z,10.38
2023-09-17T06:54:08.696Z,10.44
2023-09-17T06:56:35.417Z,10.76
2023-09-17T06:59:02.161Z,10.76
2023-09-17T07:01:28.939Z,11.08
2023-09-17T07:03:55.639Z,10.84
2023-09-17T07:06:22.756Z,11.01
2023-09-17T07:08:49.426Z,10.98
2023-09-17T07:11:16.079Z,10.93
2023-09-17T07:13:42.716Z,9.20
2023-09-17T07:16:09.530Z,11.14
2023-09-17T07:18:36.164Z,11.04
2023-09-17T07:21:02.913Z,10.46
2023-09-17T07:23:31.138Z,11.01
2023-09-17T07:25:57.920Z,11.34
2023-09-17T07:28:24.689Z,11.53
2023-09-17T07:30:56.169Z,11.54
2023-09-17T07:33:23.470Z,11.23
2023-09-17T07:35:50.267Z,11.33
2023-09-17T07:38:17.230Z,10.84
2023-09-17T07:40:44.170Z,11.17
2023-09-17T07:43:10.932Z,11.00
2023-09-17T07:45:37.666Z,11.46
2023-09-17T07:48:04.759Z,11.65
2023-09-17T07:50:31.750Z,11.74
2023-09-17T07:52:58.576Z,11.52
2023-09-17T07:55:25.338Z,11.73
2023-09-17T07:57:52.248Z,11.79
2023-09-17T08:00:19.160Z,11.61
2023-09-17T08:02:46.491Z,11.68
2023-09-17T08:05:13.791Z,10.87
2023-09-17T08:07:43.216Z,11.51
2023-09-17T08:10:10.661Z,11.98
2023-09-17T08:12:37.389Z,11.38
2023-09-17T08:15:04.591Z,11.67
2023-09-17T08:17:31.365Z,11.23
2023-09-17T08:19:59.767Z,11.52
2023-09-17T08:22:28.482Z,11.39
2023-09-17T08:25:11.425Z,11.71
2023-09-17T08:27:58.081Z,12.11
2023-09-17T08:30:45.125Z,11.78
2023-09-17T08:33:32.389Z,12.42
2023-09-17T08:36:10.338Z,12.47
2023-09-17T08:38:37.257Z,11.50
2023-09-17T08:41:06.353Z,10.97
2023-09-17T08:43:33.289Z,11.61
2023-09-17T08:46:01.820Z,11.13
2023-09-17T08:48:28.506Z,12.16
2023-09-17T08:50:57.097Z,12.33
2023-09-17T08:53:32.003Z,12.27
2023-09-17T08:56:00.289Z,12.48
2023-09-17T08:58:32.790Z,12.62
2023-09-17T09:01:04.448Z,12.92
2023-09-17T09:03:34.770Z,13.01
2023-09-17T09:06:04.759Z,12.83
2023-09-17T09:08:32.228Z,13.07
2023-09-17T09:11:00.944Z,13.09
2023-09-17T09:13:29.495Z,13.01
2023-09-17T09:15:57.959Z,13.10
2023-09-17T09:18:25.568Z,12.72
2023-09-17T09:20:52.271Z,13.02
2023-09-17T09:23:18.993Z,12.41
2023-09-17T09:25:45.646Z,13.20
2023-09-17T09:28:12.378Z,13.15
2023-09-17T09:30:38.992Z,13.14
2023-09-17T09:33:06.097Z,13.04
2023-09-17T09:35:32.858Z,13.08
2023-09-17T09:38:02.482Z,10.84
2023-09-17T09:40:29.657Z,11.87
2023-09-17T09:42:57.919Z,13.22
2023-09-17T09:45:24.656Z,13.23
2023-09-17T09:47:53.055Z,13.30
2023-09-17T09:50:28.058Z,13.27
2023-09-17T09:52:56.201Z,13.52
2023-09-17T09:55:25.187Z,13.58
2023-09-17T09:57:54.911Z,13.51
2023-09-17T10:00:28.407Z,13.36
2023-09-17T10:02:55.922Z,13.26
2023-09-17T10:05:35.572Z,13.26
2023-09-17T10:08:05.801Z,13.36
2023-09-17T10:10:33.077Z,13.12
2023-09-17T10:13:02.109Z,13.36
2023-09-17T10:15:28.881Z,13.30
2023-09-17T10:17:57.258Z,12.79
2023-09-17T10:20:27.168Z,13.15
2023-09-17T10:22:55.599Z,12.76
2023-09-17T10:25:24.437Z,13.45
2023-09-17T10:27:53.113Z,13.56
2023-09-17T10:30:19.903Z,13.68
2023-09-17T10:32:48.931Z,13.55
2023-09-17T10:35:15.636Z,13.81
2023-09-17T10:37:43.833Z,13.75
2023-09-17T10:40:11.590Z,13.58
2023-09-17T10:42:39.696Z,12.88
2023-09-17T10:45:11.706Z,13.26
2023-09-17T10:47:42.162Z,12.75
2023-09-17T10:50:14.303Z,13.49
2023-09-17T10:52:41.298Z,13.52
2023-09-17T10:55:08.736Z,13.26
2023-09-17T10:57:40.356Z,13.68
2023-09-17T11:00:19.986Z,13.62
2023-09-17T11:02:51.919Z,13.86
2023-09-17T11:05:21.349Z,14.01
2023-09-17T11:07:49.150Z,12.23
2023-09-17T11:10:29.392Z,14.02
2023-09-17T11:12:59.224Z,14.11
2023-09-17T11:15:26.233Z,14.20
2023-09-17T11:18:00.767Z,14.15
2023-09-17T11:20:27.932Z,14.30
2023-09-17T11:22:54.612Z,14.22
2023-09-17T11:25:35.834Z,13.68
2023-09-17T11:28:13.846Z,14.07
2023-09-17T11:31:00.678Z,14.04
2023-09-17T11:33:27.848Z,14.03
2023-09-17T11:35:56.170Z,13.62
2023-09-17T11:38:27.354Z,13.85
2023-09-17T11:41:10.045Z,13.92
2023-09-17T11:43:44.301Z,13.83
2023-09-17T11:46:12.861Z,13.45
2023-09-17T11:48:40.450Z,13.87
2023-09-17T11:51:22.227Z,13.90
2023-09-17T11:54:08.861Z,13.82
2023-09-17T11:56:37.841Z,13.73
2023-09-17T11:59:10.407Z,14.13
2023-09-17T12:01:45.624Z,14.10
2023-09-17T12:04:13.053Z,14.12
2023-09-17T12:06:42.554Z,13.75
2023-09-17T12:09:22.973Z,14.27
2023-09-17T12:11:49.943Z,14.28
2023-09-17T12:14:17.730Z,14.36
2023-09-17T12:16:47.394Z,14.40
2023-09-17T12:19:18.331Z,14.41
2023-09-17T12:21:51.993Z,14.20
2023-09-17T12:24:35.550Z,13.91
2023-09-17T12:27:34.261Z,14.46
2023-09-17T12:30:00.988Z,14.51
2023-09-17T12:32:31.539Z,14.44
2023-09-17T12:34:58.641Z,14.41
2023-09-17T12:37:29.281Z,14.55
2023-09-17T12:39:56.013Z,13.97
2023-09-17T12:42:22.854Z,14.59
2023-09-17T12:44:50.596Z,14.60
2023-09-17T12:47:18.232Z,14.63
2023-09-17T12:49:45.381Z,14.36
2023-09-17T12:52:13.256Z,14.60
2023-09-17T12:54:41.082Z,14.58
2023-09-17T12:57:08.148Z,14.57
2023-09-17T12:59:40.546Z,14.59
2023-09-17T13:02:09.622Z,14.10
2023-09-17T13:04:44.697Z,14.63
2023-09-17T13:07:21.689Z,14.78
2023-09-17T13:09:50.486Z,14.66
2023-09-17T13:12:25.819Z,14.58
2023-09-17T13:14:53.607Z,14.68
2023-09-17T13:17:21.403Z,14.79
2023-09-17T13:19:49.077Z,14.70
2023-09-17T13:22:16.665Z,14.47
2023-09-17T13:24:45.533Z,14.16
2023-09-17T13:27:12.365Z,14.79
2023-09-17T13:29:41.307Z,14.50
2023-09-17T13:32:12.731Z,14.89
2023-09-17T13:34:42.706Z,14.22
2023-09-17T13:37:10.535Z,15.00
2023-09-17T13:39:45.365Z,14.89
2023-09-17T13:42:12.975Z,14.92
2023-09-17T13:44:39.654Z,14.78
2023-09-17T13:47:12.226Z,14.76
2023-09-17T13:49:41.694Z,14.68
2023-09-17T13:52:09.717Z,14.81
2023-09-17T13:54:39.740Z,14.82
2023-09-17T13:57:06.668Z,14.86
2023-09-17T13:59:33.337Z,14.93
2023-09-17T14:02:00.025Z,14.92
2023-09-17T14:04:27.000Z,14.81
2023-09-17T14:06:55.726Z,14.73
2023-09-17T14:09:23.661Z,14.94
2023-09-17T14:11:50.510Z,14.94
2023-09-17T14:14:17.243Z,15.01
2023-09-17T14:16:45.396Z,14.89
2023-09-17T14:19:17.829Z,14.95
2023-09-17T14:21:45.861Z,14.51
2023-09-17T14:24:12.462Z,15.01
2023-09-17T14:26:39.170Z,15.01
2023-09-17T14:29:05.949Z,15.03
2023-09-17T14:31:32.705Z,14.91
2023-09-17T14:33:59.309Z,14.95
2023-09-17T14:36:25.938Z,15.01
2023-09-17T14:38:52.957Z,14.96
2023-09-17T14:41:19.883Z,15.12
2023-09-17T14:43:46.588Z,15.16
2023-09-17T14:46:13.763Z,15.09
2023-09-17T14:48:40.457Z,15.11
2023-09-17T14:51:07.106Z,15.12
2023-09-17T14:53:33.737Z,15.13
2023-09-17T14:56:00.483Z,15.09
2023-09-17T14:58:27.076Z,15.01
2023-09-17T15:00:53.737Z,15.07
2023-09-17T15:03:20.599Z,15.09
2023-09-17T15:05:47.898Z,14.62
2023-09-17T15:08:14.682Z,15.01
2023-09-17T15:10:43.302Z,14.96
2023-09-17T15:13:10.560Z,15.02
2023-09-17T15:15:37.184Z,15.10
2023-09-17T15:18:04.181Z,15.16
2023-09-17T15:20:31.273Z,15.12
2023-09-17T15:22:58.328Z,15.08
2023-09-17T15:25:25.050Z,14.52
2023-09-17T15:27:51.705Z,15.12
2023-09-17T15:30:18.841Z,14.82
2023-09-17T15:32:46.095Z,15.17
2023-09-17T15:35:18.156Z,14.78
2023-09-17T15:37:47.815Z,15.10
2023-09-17T15:40:14.830Z,14.50
2023-09-17T15:42:46.762Z,14.47
2023-09-17T15:45:13.729Z,15.21
2023-09-17T15:47:41.548Z,15.21
2023-09-17T15:50:09.571Z,15.21
2023-09-17T15:52:36.303Z,15.24
2023-09-17T15:55:04.455Z,15.30
2023-09-17T15:57:31.138Z,15.26
2023-09-17T15:59:57.909Z,15.23
2023-09-17T16:02:24.692Z,15.24
2023-09-17T16:04:51.568Z,15.34
2023-09-17T16:07:18.222Z,15.32
2023-09-17T16:09:44.856Z,15.35
2023-09-17T16:12:11.780Z,15.39
2023-09-17T16:14:39.113Z,15.32
2023-09-17T16:17:05.747Z,15.19
2023-09-17T16:19:32.654Z,14.59
2023-09-17T16:21:59.303Z,15.25
2023-09-17T16:24:26.061Z,15.25
2023-09-17T16:26:52.700Z,15.15
2023-09-17T16:29:19.405Z,15.06
2023-09-17T16:31:46.158Z,15.13
2023-09-17T16:34:12.942Z,15.14
2023-09-17T16:36:41.008Z,15.11
2023-09-17T16:39:07.652Z,15.13
2023-09-17T16:41:34.276Z,15.04
2023-09-17T16:44:01.025Z,14.28
2023-09-17T16:46:27.763Z,15.09
2023-09-17T16:48:54.452Z,15.03
2023-09-17T16:51:21.093Z,14.98
2023-09-17T16:53:47.819Z,14.96
2023-09-17T16:56:14.473Z,14.91
2023-09-17T16:58:41.229Z,14.84
2023-09-17T17:01:07.949Z,14.79
2023-09-17T17:03:34.705Z,14.76
2023-09-17T17:06:01.450Z,14.73
2023-09-17T17:08:29.273Z,14.70
2023-09-17T17:10:57.772Z,14.58
2023-09-17T17:13:24.573Z,14.63
2023-09-17T17:15:51.327Z,14.59
2023-09-17T17:18:18.699Z,14.53
2023-09-17T17:20:45.331Z,14.42
2023-09-17T17:23:12.025Z,14.34
2023-09-17T17:25:39.499Z,14.34
2023-09-17T17:28:06.255Z,14.26
2023-09-17T17:30:32.935Z,14.23
2023-09-17T17:32:59.690Z,14.20
2023-09-17T17:35:26.851Z,13.94
2023-09-17T17:37:53.585Z,14.14
2023-09-17T17:40:23.695Z,14.08
2023-09-17T17:42:51.103Z,13.89
2023-09-17T17:45:17.904Z,13.83
2023-09-17T17:47:44.897Z,13.68
2023-09-17T17:50:14.605Z,13.62
2023-09-17T17:52:42.155Z,13.60
2023-09-17T17:55:09.827Z,13.51
2023-09-17T17:57:36.965Z,13.48
2023-09-17T18:00:06.861Z,13.40
2023-09-17T18:02:40.102Z,13.39
2023-09-17T18:05:07.855Z,13.37
2023-09-17T18:07:35.044Z,13.30
2023-09-17T18:10:07.707Z,13.32
2023-09-17T18:12:35.233Z,13.29
2023-09-17T18:15:03.196Z,13.25
2023-09-17T18:17:31.447Z,13.20
2023-09-17T18:19:58.454Z,12.22
2023-09-17T18:22:25.116Z,13.10
2023-09-17T18:24:51.806Z,13.00
2023-09-17T18:27:18.577Z,12.81
2023-09-17T18:29:45.496Z,13.13
2023-09-17T18:32:12.156Z,13.01
2023-09-17T18:34:38.860Z,12.96
2023-09-17T18:37:07.286Z,12.88
2023-09-17T18:39:34.033Z,12.86
2023-09-17T18:42:01.133Z,12.87
2023-09-17T18:44:29.914Z,12.84
2023-09-17T18:46:57.135Z,12.22
2023-09-17T18:49:23.807Z,11.88
2023-09-17T18:51:50.458Z,12.83
2023-09-17T18:54:17.396Z,12.62
2023-09-17T18:56:45.025Z,12.56
2023-09-17T18:59:12.028Z,12.37
2023-09-17T19:01:40.793Z,12.44
2023-09-17T19:04:10.373Z,12.09
2023-09-17T19:06:37.156Z,12.46
2023-09-17T19:09:07.200Z,12.55
2023-09-17T19:11:34.641Z,12.56
2023-09-17T19:14:01.456Z,12.12
2023-09-17T19:16:28.873Z,12.52
2023-09-17T19:18:56.745Z,12.50
2023-09-17T19:21:25.468Z,12.57
2023-09-17T19:23:53.401Z,12.66
2023-09-17T19:26:20.964Z,12.48
2023-09-17T19:28:48.042Z,12.41
2023-09-17T19:31:14.929Z,12.27
2023-09-17T19:33:41.662Z,12.41
2023-09-17T19:36:08.305Z,11.78
2023-09-17T19:38:35.747Z,11.72
2023-09-17T19:41:03.312Z,11.63
2023-09-17T19:43:30.009Z,12.28
2023-09-17T19:45:58.073Z,11.69
2023-09-17T19:48:25.663Z,12.16
2023-09-17T19:50:52.977Z,12.29
2023-09-17T19:53:20.483Z,12.36
2023-09-17T19:55:47.843Z,11.83
2023-09-17T19:58:14.672Z,12.24
2023-09-17T20:00:42.725Z,12.17
2023-09-17T20:03:09.650Z,12.24
2023-09-17T20:05:36.604Z,12.34
2023-09-17T20:08:08.375Z,12.38
2023-09-17T20:10:37.856Z,12.33
2023-09-17T20:13:05.111Z,12.35
2023-09-17T20:15:31.895Z,12.26
2023-09-17T20:17:59.382Z,12.28
2023-09-17T20:20:31.400Z,12.21
2023-09-17T20:22:58.174Z,12.16
2023-09-17T20:25:24.820Z,12.12
2023-09-17T20:27:53.296Z,11.84
2023-09-17T20:30:19.840Z,11.58
2023-09-17T20:32:46.502Z,11.45
2023-09-17T20:35:13.215Z,11.27
2023-09-17T20:37:39.813Z,11.20
2023-09-17T20:40:06.802Z,11.16
2023-09-17T20:42:33.609Z,11.17
2023-09-17T20:45:00.433Z,11.18
2023-09-17T20:47:29.373Z,11.18
2023-09-17T20:49:56.293Z,11.13
2023-09-17T20:52:23.095Z,11.10
2023-09-17T20:54:49.597Z,11.07
2023-09-17T20:57:17.474Z,10.99
2023-09-17T20:59:43.959Z,11.01
2023-09-17T21:02:10.730Z,10.89
2023-09-17T21:04:37.616Z,10.88
2023-09-17T21:07:04.184Z,10.93
2023-09-17T21:09:34.238Z,10.75
2023-09-17T21:12:00.835Z,10.54
2023-09-17T21:14:27.952Z,10.62
2023-09-17T21:16:54.616Z,10.59
2023-09-17T21:19:21.129Z,10.44
2023-09-17T21:21:47.716Z,10.12
2023-09-17T21:24:14.211Z,10.08
2023-09-17T21:26:42.007Z,10.08
2023-09-17T21:29:08.876Z,10.08
2023-09-17T21:31:35.556Z,9.96
2023-09-17T21:34:02.134Z,10.05
2023-09-17T21:36:29.952Z,9.97
2023-09-17T21:38:56.493Z,10.07
2023-09-17T21:41:23.209Z,10.20
2023-09-17T21:43:50.355Z,10.14
2023-09-17T21:46:16.973Z,10.11
2023-09-17T21:48:43.532Z,9.91
2023-09-17T21:51:10.117Z,10.05
2023-09-17T21:53:36.605Z,10.00
2023-09-17T21:56:03.338Z,9.82
2023-09-17T21:58:29.886Z,9.83
2023-09-17T22:00:56.517Z,9.70
2023-09-17T22:03:23.170Z,9.67
2023-09-17T22:05:51.142Z,9.88
2023-09-17T22:08:21.982Z,10.05
2023-09-17T22:10:48.715Z,10.17
2023-09-17T22:13:16.764Z,10.08
2023-09-17T22:15:44.557Z,10.15
2023-09-17T22:18:11.302Z,10.04
2023-09-17T22:20:37.923Z,10.09
2023-09-17T22:23:04.481Z,10.17
2023-09-17T22:25:31.023Z,10.26
2023-09-17T22:27:57.576Z,10.03
2023-09-17T22:30:25.933Z,9.98
2023-09-17T22:32:52.495Z,10.09
2023-09-17T22:35:19.218Z,10.16
2023-09-17T22:37:45.763Z,10.12
2023-09-17T22:40:12.887Z,10.10
2023-09-17T22:42:39.471Z,10.17
2023-09-17T22:45:06.457Z,10.29
2023-09-17T22:47:34.072Z,10.06
2023-09-17T22:50:01.010Z,10.05
2023-09-17T22:52:27.781Z,9.91
2023-09-17T22:54:54.410Z,9.87
2023-09-17T22:57:21.000Z,9.97
2023-09-17T22:59:47.605Z,10.09
2023-09-17T23:02:14.223Z,10.03
2023-09-17T23:04:40.890Z,10.07
2023-09-17T23:07:07.392Z,9.98
2023-09-17T23:09:34.182Z,9.86
2023-09-17T23:12:00.705Z,9.86
2023-09-17T23:14:27.337Z,9.88
2023-09-17T23:16:53.916Z,10.16
2023-09-17T23:19:23.994Z,10.36
2023-09-17T23:21:53.708Z,10.43
2023-09-17T23:24:20.243Z,10.44
2023-09-17T23:26:46.829Z,10.58
2023-09-17T23:29:13.417Z,10.74
2023-09-17T23:31:41.148Z,10.88
2023-09-17T23:34:07.897Z,10.98
2023-09-17T23:36:37.205Z,11.10
2023-09-17T23:39:04.583Z,11.01
2023-09-17T23:41:31.455Z,11.08
2023-09-17T23:43:58.150Z,11.15
2023-09-17T23:46:24.795Z,11.15
2023-09-17T23:48:51.658Z,11.22
2023-09-17T23:51:18.603Z,11.19
2023-09-17T23:53:45.121Z,11.15
2023-09-17T23:56:11.710Z,11.24
2023-09-17T23:58:38.324Z,11.22
